createdAt,value
2023-01-17T00:09:57.015Z,-0.80
2023-01-17T00:20:20.326Z,-0.90
2023-01-17T00:30:23.146Z,-0.50
2023-01-17T00:40:26.818Z,-0.30
2023-01-17T00:50:49.056Z,-0.10
2023-01-17T01:01:11.330Z,-0.40
2023-01-17T01:11:33.905Z,-0.70
2023-01-17T01:21:56.441Z,-0.70
2023-01-17T01:32:17.159Z,-0.70
2023-01-17T01:42:21.955Z,-1.00
2023-01-17T01:52:28.494Z,-1.00
2023-01-17T02:02:33.708Z,-0.80
2023-01-17T02:12:37.633Z,-1.00
2023-01-17T02:23:17.624Z,-1.10
2023-01-17T02:33:34.489Z,-1.20
2023-01-17T02:43:39.565Z,-1.40
2023-01-17T02:54:00.401Z,-1.70
2023-01-17T03:04:12.768Z,-1.80
2023-01-17T03:14:17.579Z,-2.30
2023-01-17T03:24:21.021Z,-2.50
2023-01-17T03:34:26.014Z,-2.60
2023-01-17T03:44:29.462Z,-2.50
2023-01-17T03:54:34.423Z,-2.50
2023-01-17T04:04:37.915Z,-2.80
2023-01-17T04:14:42.844Z,-3.00
2023-01-17T04:24:46.254Z,-3.20
2023-01-17T04:34:51.079Z,-3.00
2023-01-17T04:44:54.511Z,-2.60
2023-01-17T04:54:59.343Z,-2.40
2023-01-17T05:05:02.827Z,-2.20
2023-01-17T05:15:09.098Z,-1.70
2023-01-17T05:25:12.581Z,-1.60
2023-01-17T05:35:19.643Z,-1.40
2023-01-17T05:45:25.795Z,-1.20
2023-01-17T05:55:31.691Z,-1.10
2023-01-17T06:05:35.259Z,-1.30
2023-01-17T06:15:41.112Z,-1.40
2023-01-17T06:25:46.620Z,-1.30
2023-01-17T06:35:53.583Z,-1.10
2023-01-17T06:45:57.106Z,-1.10
2023-01-17T06:56:01.921Z,-1.00
2023-01-17T07:06:07.156Z,-0.80
2023-01-17T07:16:12.200Z,-0.60
2023-01-17T07:26:17.313Z,-0.50
2023-01-17T07:36:22.186Z,-0.30
2023-01-17T07:46:25.667Z,-0.10
2023-01-17T07:56:30.524Z,0.00
2023-01-17T08:06:34.096Z,0.20
2023-01-17T08:16:40.175Z,0.40
2023-01-17T08:26:43.711Z,0.60
2023-01-17T08:36:48.527Z,0.90
2023-01-17T08:46:52.051Z,1.20
2023-01-17T08:56:56.838Z,1.50
2023-01-17T09:07:01.077Z,1.80
2023-01-17T09:17:07.136Z,2.30
2023-01-17T09:27:10.769Z,3.30
2023-01-17T09:37:15.573Z,3.80
2023-01-17T09:47:31.652Z,5.40
2023-01-17T09:57:48.421Z,5.20
2023-01-17T10:08:16.197Z,5.80
2023-01-17T10:19:05.553Z,10.40
2023-01-17T10:29:20.062Z,22.60
2023-01-17T10:39:29.334Z,26.00
2023-01-17T10:49:32.914Z,29.20
2023-01-17T10:59:38.277Z,30.20
2023-01-17T11:09:44.518Z,32.10
2023-01-17T11:19:51.377Z,33.60
2023-01-17T11:30:09.286Z,30.60
2023-01-17T11:40:27.857Z,28.00
2023-01-17T11:50:31.539Z,32.50
2023-01-17T12:00:46.067Z,34.50
2023-01-17T12:11:00.946Z,34.10
2023-01-17T12:21:18.434Z,34.60
2023-01-17T12:31:33.606Z,34.10
2023-01-17T12:41:49.629Z,33.30
2023-01-17T12:52:00.095Z,29.10
2023-01-17T13:02:19.202Z,27.50
2023-01-17T13:12:24.042Z,24.20
2023-01-17T13:22:30.253Z,29.60
2023-01-17T13:32:57.337Z,30.90
2023-01-17T13:43:05.025Z,29.60
2023-01-17T13:53:57.401Z,29.60
2023-01-17T14:04:08.249Z,27.10
2023-01-17T14:14:51.993Z,22.20
2023-01-17T14:25:09.857Z,14.80
2023-01-17T14:35:24.209Z,17.80
2023-01-17T14:45:31.476Z,14.10
2023-01-17T14:55:35.283Z,10.10
2023-01-17T15:05:43.054Z,7.50
2023-01-17T15:15:46.813Z,5.70
2023-01-17T15:25:54.238Z,4.60
2023-01-17T15:36:02.160Z,3.70
2023-01-17T15:46:07.561Z,3.30
2023-01-17T15:56:33.922Z,2.50
2023-01-17T16:06:45.710Z,2.50
2023-01-17T16:16:53.659Z,2.60
2023-01-17T16:26:58.746Z,2.10
2023-01-17T16:37:04.254Z,1.80
2023-01-17T16:47:09.213Z,1.50
2023-01-17T16:57:12.673Z,1.40
2023-01-17T17:07:17.571Z,1.40
2023-01-17T17:17:21.037Z,1.30
2023-01-17T17:27:27.879Z,1.20
2023-01-17T17:37:31.366Z,1.00
2023-01-17T17:47:36.218Z,1.10
2023-01-17T17:57:39.749Z,1.00
2023-01-17T18:07:44.629Z,0.90
2023-01-17T18:17:48.818Z,0.80
2023-01-17T18:27:54.142Z,0.60
2023-01-17T18:37:58.361Z,0.80
2023-01-17T18:48:03.491Z,1.00
2023-01-17T18:58:09.195Z,1.20
2023-01-17T19:08:14.038Z,1.20
2023-01-17T19:18:17.521Z,1.20
2023-01-17T19:28:22.421Z,1.20
2023-01-17T19:38:25.919Z,1.50
2023-01-17T19:48:31.154Z,1.50
2023-01-17T19:58:35.451Z,1.50
2023-01-17T20:08:40.743Z,1.50
2023-01-17T20:18:45.684Z,1.80
2023-01-17T20:28:53.336Z,1.60
2023-01-17T20:38:57.201Z,1.50
2023-01-17T20:49:04.631Z,1.50
2023-01-17T20:59:14.605Z,1.50
2023-01-17T21:09:21.319Z,1.30
2023-01-17T21:19:27.525Z,1.50
2023-01-17T21:29:32.803Z,1.30
2023-01-17T21:39:36.292Z,1.60
2023-01-17T21:49:41.246Z,1.80
2023-01-17T21:59:44.681Z,1.90
2023-01-17T22:09:49.633Z,2.00
2023-01-17T22:19:53.079Z,2.20
2023-01-17T22:29:57.888Z,1.70
2023-01-17T22:40:04.680Z,2.00
2023-01-17T22:50:46.636Z,2.10
2023-01-17T23:00:51.019Z,1.90
2023-01-17T23:11:13.304Z,2.00
2023-01-17T23:21:16.886Z,2.10
2023-01-17T23:31:21.797Z,2.00
2023-01-17T23:41:42.839Z,1.60
2023-01-17T23:51:47.588Z,1.80
